sensor_id;sensor_type;location;lat;lon;timestamp;P1;durP1;ratioP1;P2;durP2;ratioP2
79526;SDS011;68974;47.754;-3.364;2023-07-28T00:01:53;2.22;;;1.60;;
79526;SDS011;68974;47.754;-3.364;2023-07-28T00:04:18;21.25;;;2.33;;
79526;SDS011;68974;47.754;-3.364;2023-07-28T00:06:44;5.82;;;2.08;;
79526;SDS011;68974;47.754;-3.364;2023-07-28T00:09:10;8.57;;;2.10;;
79526;SDS011;68974;47.754;-3.364;2023-07-28T00:11:35;5.85;;;2.00;;
79526;SDS011;68974;47.754;-3.364;2023-07-28T00:14:01;3.78;;;2.50;;
79526;SDS011;68974;47.754;-3.364;2023-07-28T00:16:26;4.63;;;2.05;;
79526;SDS011;68974;47.754;-3.364;2023-07-28T00:18:51;3.47;;;2.00;;
79526;SDS011;68974;47.754;-3.364;2023-07-28T00:21:17;3.05;;;1.83;;
79526;SDS011;68974;47.754;-3.364;2023-07-28T00:23:42;3.42;;;1.90;;
79526;SDS011;68974;47.754;-3.364;2023-07-28T00:26:08;3.03;;;1.92;;
79526;SDS011;68974;47.754;-3.364;2023-07-28T00:28:33;3.72;;;1.83;;
79526;SDS011;68974;47.754;-3.364;2023-07-28T00:30:59;4.28;;;1.88;;
79526;SDS011;68974;47.754;-3.364;2023-07-28T00:33:24;42.22;;;4.03;;
79526;SDS011;68974;47.754;-3.364;2023-07-28T00:35:50;3.10;;;1.92;;
79526;SDS011;68974;47.754;-3.364;2023-07-28T00:38:15;3.83;;;1.80;;
79526;SDS011;68974;47.754;-3.364;2023-07-28T00:40:41;3.17;;;1.85;;
79526;SDS011;68974;47.754;-3.364;2023-07-28T00:43:06;2.28;;;1.50;;
79526;SDS011;68974;47.754;-3.364;2023-07-28T00:45:32;2.72;;;1.70;;
79526;SDS011;68974;47.754;-3.364;2023-07-28T00:47:59;2.75;;;1.73;;
79526;SDS011;68974;47.754;-3.364;2023-07-28T00:50:25;2.00;;;1.48;;
79526;SDS011;68974;47.754;-3.364;2023-07-28T00:52:51;4.38;;;1.40;;
79526;SDS011;68974;47.754;-3.364;2023-07-28T00:55:17;1.65;;;1.38;;
79526;SDS011;68974;47.754;-3.364;2023-07-28T00:57:43;2.17;;;1.00;;
79526;SDS011;68974;47.754;-3.364;2023-07-28T01:00:09;1.88;;;1.42;;
79526;SDS011;68974;47.754;-3.364;2023-07-28T01:02:36;1.52;;;1.02;;
79526;SDS011;68974;47.754;-3.364;2023-07-28T01:05:02;2.20;;;1.48;;
79526;SDS011;68974;47.754;-3.364;2023-07-28T01:07:46;3.45;;;1.20;;
79526;SDS011;68974;47.754;-3.364;2023-07-28T01:10:28;1.80;;;1.23;;
79526;SDS011;68974;47.754;-3.364;2023-07-28T01:12:57;1.70;;;1.20;;
79526;SDS011;68974;47.754;-3.364;2023-07-28T01:15:22;4.10;;;1.25;;
79526;SDS011;68974;47.754;-3.364;2023-07-28T01:17:48;1.85;;;1.13;;
79526;SDS011;68974;47.754;-3.364;2023-07-28T01:20:13;3.42;;;1.40;;
79526;SDS011;68974;47.754;-3.364;2023-07-28T01:25:47;2.78;;;1.60;;
79526;SDS011;68974;47.754;-3.364;2023-07-28T01:28:19;3.35;;;2.00;;
79526;SDS011;68974;47.754;-3.364;2023-07-28T01:30:45;3.42;;;1.67;;
79526;SDS011;68974;47.754;-3.364;2023-07-28T01:33:10;1.85;;;1.55;;
79526;SDS011;68974;47.754;-3.364;2023-07-28T01:35:36;2.50;;;1.60;;
79526;SDS011;68974;47.754;-3.364;2023-07-28T01:38:03;2.05;;;1.20;;
79526;SDS011;68974;47.754;-3.364;2023-07-28T01:40:29;1.90;;;1.30;;
79526;SDS011;68974;47.754;-3.364;2023-07-28T01:42:55;1.90;;;1.20;;
79526;SDS011;68974;47.754;-3.364;2023-07-28T01:45:20;1.45;;;1.05;;
79526;SDS011;68974;47.754;-3.364;2023-07-28T01:47:46;1.58;;;0.85;;
79526;SDS011;68974;47.754;-3.364;2023-07-28T01:50:11;1.45;;;0.90;;
79526;SDS011;68974;47.754;-3.364;2023-07-28T01:52:37;1.20;;;0.70;;
79526;SDS011;68974;47.754;-3.364;2023-07-28T01:55:02;1.08;;;0.70;;
79526;SDS011;68974;47.754;-3.364;2023-07-28T01:57:30;1.33;;;0.85;;
79526;SDS011;68974;47.754;-3.364;2023-07-28T01:59:57;1.00;;;0.77;;
79526;SDS011;68974;47.754;-3.364;2023-07-28T02:02:23;1.20;;;0.60;;
79526;SDS011;68974;47.754;-3.364;2023-07-28T02:04:48;1.00;;;0.60;;
79526;SDS011;68974;47.754;-3.364;2023-07-28T02:07:14;2.05;;;0.80;;
79526;SDS011;68974;47.754;-3.364;2023-07-28T02:09:39;1.05;;;0.43;;
79526;SDS011;68974;47.754;-3.364;2023-07-28T02:12:05;1.58;;;0.47;;
79526;SDS011;68974;47.754;-3.364;2023-07-28T02:14:31;0.85;;;0.57;;
79526;SDS011;68974;47.754;-3.364;2023-07-28T02:16:56;0.60;;;0.40;;
79526;SDS011;68974;47.754;-3.364;2023-07-28T02:19:22;0.95;;;0.75;;
79526;SDS011;68974;47.754;-3.364;2023-07-28T02:21:47;1.60;;;0.60;;
79526;SDS011;68974;47.754;-3.364;2023-07-28T02:24:13;1.45;;;0.70;;
79526;SDS011;68974;47.754;-3.364;2023-07-28T02:26:38;0.77;;;0.70;;
79526;SDS011;68974;47.754;-3.364;2023-07-28T02:29:04;1.10;;;0.80;;
79526;SDS011;68974;47.754;-3.364;2023-07-28T02:31:29;0.80;;;0.57;;
79526;SDS011;68974;47.754;-3.364;2023-07-28T02:33:55;0.60;;;0.50;;
79526;SDS011;68974;47.754;-3.364;2023-07-28T02:36:20;1.05;;;0.70;;
79526;SDS011;68974;47.754;-3.364;2023-07-28T02:38:46;1.30;;;0.77;;
79526;SDS011;68974;47.754;-3.364;2023-07-28T02:41:11;1.42;;;1.00;;
79526;SDS011;68974;47.754;-3.364;2023-07-28T02:43:37;1.48;;;0.90;;
79526;SDS011;68974;47.754;-3.364;2023-07-28T02:46:02;2.38;;;1.55;;
79526;SDS011;68974;47.754;-3.364;2023-07-28T02:48:28;2.40;;;0.98;;
79526;SDS011;68974;47.754;-3.364;2023-07-28T02:50:53;1.90;;;1.30;;
79526;SDS011;68974;47.754;-3.364;2023-07-28T02:53:19;1.42;;;1.00;;
79526;SDS011;68974;47.754;-3.364;2023-07-28T02:55:45;3.72;;;1.05;;
79526;SDS011;68974;47.754;-3.364;2023-07-28T02:58:11;1.70;;;0.98;;
79526;SDS011;68974;47.754;-3.364;2023-07-28T03:00:38;1.80;;;1.00;;
79526;SDS011;68974;47.754;-3.364;2023-07-28T03:03:05;1.55;;;1.20;;
79526;SDS011;68974;47.754;-3.364;2023-07-28T03:05:31;1.67;;;1.05;;
79526;SDS011;68974;47.754;-3.364;2023-07-28T03:07:57;2.25;;;1.17;;
79526;SDS011;68974;47.754;-3.364;2023-07-28T03:10:24;1.95;;;1.17;;
79526;SDS011;68974;47.754;-3.364;2023-07-28T03:12:49;2.05;;;1.30;;
79526;SDS011;68974;47.754;-3.364;2023-07-28T03:15:15;2.03;;;1.50;;
79526;SDS011;68974;47.754;-3.364;2023-07-28T03:17:40;1.70;;;1.02;;
79526;SDS011;68974;47.754;-3.364;2023-07-28T03:20:06;2.92;;;1.70;;
79526;SDS011;68974;47.754;-3.364;2023-07-28T03:22:32;2.95;;;1.48;;
79526;SDS011;68974;47.754;-3.364;2023-07-28T03:24:57;3.08;;;1.75;;
79526;SDS011;68974;47.754;-3.364;2023-07-28T03:27:23;3.72;;;1.98;;
79526;SDS011;68974;47.754;-3.364;2023-07-28T03:29:49;3.65;;;1.92;;
79526;SDS011;68974;47.754;-3.364;2023-07-28T03:32:15;3.25;;;1.83;;
79526;SDS011;68974;47.754;-3.364;2023-07-28T03:34:41;2.70;;;1.77;;
79526;SDS011;68974;47.754;-3.364;2023-07-28T03:37:06;3.10;;;1.70;;
79526;SDS011;68974;47.754;-3.364;2023-07-28T03:39:32;2.35;;;1.83;;
79526;SDS011;68974;47.754;-3.364;2023-07-28T03:41:57;3.85;;;1.70;;
79526;SDS011;68974;47.754;-3.364;2023-07-28T03:44:23;2.45;;;1.80;;
79526;SDS011;68974;47.754;-3.364;2023-07-28T03:46:49;2.20;;;1.63;;
79526;SDS011;68974;47.754;-3.364;2023-07-28T03:49:14;3.28;;;2.20;;
79526;SDS011;68974;47.754;-3.364;2023-07-28T03:51:40;4.63;;;1.85;;
79526;SDS011;68974;47.754;-3.364;2023-07-28T03:54:05;2.92;;;1.95;;
79526;SDS011;68974;47.754;-3.364;2023-07-28T03:56:31;4.50;;;2.15;;
79526;SDS011;68974;47.754;-3.364;2023-07-28T03:58:56;2.85;;;1.80;;
79526;SDS011;68974;47.754;-3.364;2023-07-28T04:01:22;3.35;;;2.00;;
79526;SDS011;68974;47.754;-3.364;2023-07-28T04:03:47;4.05;;;2.20;;
79526;SDS011;68974;47.754;-3.364;2023-07-28T04:06:13;3.17;;;2.05;;
79526;SDS011;68974;47.754;-3.364;2023-07-28T04:08:39;3.10;;;1.90;;
79526;SDS011;68974;47.754;-3.364;2023-07-28T04:11:05;3.15;;;2.10;;
79526;SDS011;68974;47.754;-3.364;2023-07-28T04:13:31;4.18;;;2.28;;
79526;SDS011;68974;47.754;-3.364;2023-07-28T04:15:56;8.20;;;6.70;;
79526;SDS011;68974;47.754;-3.364;2023-07-28T04:18:22;4.18;;;2.40;;
79526;SDS011;68974;47.754;-3.364;2023-07-28T04:20:48;3.97;;;2.63;;
79526;SDS011;68974;47.754;-3.364;2023-07-28T04:23:13;5.15;;;3.42;;
79526;SDS011;68974;47.754;-3.364;2023-07-28T04:25:39;4.65;;;2.20;;
79526;SDS011;68974;47.754;-3.364;2023-07-28T04:28:04;4.20;;;2.35;;
79526;SDS011;68974;47.754;-3.364;2023-07-28T04:30:30;5.78;;;2.53;;
79526;SDS011;68974;47.754;-3.364;2023-07-28T04:32:55;3.83;;;2.15;;
79526;SDS011;68974;47.754;-3.364;2023-07-28T04:35:21;4.75;;;2.75;;
79526;SDS011;68974;47.754;-3.364;2023-07-28T04:37:46;3.55;;;2.80;;
79526;SDS011;68974;47.754;-3.364;2023-07-28T04:40:12;4.63;;;2.45;;
79526;SDS011;68974;47.754;-3.364;2023-07-28T04:42:38;4.13;;;2.30;;
79526;SDS011;68974;47.754;-3.364;2023-07-28T04:45:03;3.92;;;2.50;;
79526;SDS011;68974;47.754;-3.364;2023-07-28T04:47:30;3.30;;;2.40;;
79526;SDS011;68974;47.754;-3.364;2023-07-28T04:49:55;4.43;;;2.50;;
79526;SDS011;68974;47.754;-3.364;2023-07-28T04:52:21;5.18;;;2.60;;
79526;SDS011;68974;47.754;-3.364;2023-07-28T04:54:46;5.32;;;2.70;;
79526;SDS011;68974;47.754;-3.364;2023-07-28T04:57:12;4.38;;;2.50;;
79526;SDS011;68974;47.754;-3.364;2023-07-28T04:59:37;3.65;;;2.33;;
79526;SDS011;68974;47.754;-3.364;2023-07-28T05:02:03;3.83;;;2.30;;
79526;SDS011;68974;47.754;-3.364;2023-07-28T05:04:29;4.43;;;2.35;;
79526;SDS011;68974;47.754;-3.364;2023-07-28T05:06:54;5.75;;;2.55;;
79526;SDS011;68974;47.754;-3.364;2023-07-28T05:09:20;4.00;;;2.63;;
79526;SDS011;68974;47.754;-3.364;2023-07-28T05:11:45;4.13;;;2.45;;
79526;SDS011;68974;47.754;-3.364;2023-07-28T05:14:11;3.55;;;1.98;;
79526;SDS011;68974;47.754;-3.364;2023-07-28T05:16:36;4.05;;;2.00;;
79526;SDS011;68974;47.754;-3.364;2023-07-28T05:19:03;4.72;;;1.98;;
79526;SDS011;68974;47.754;-3.364;2023-07-28T05:21:30;4.28;;;1.85;;
79526;SDS011;68974;47.754;-3.364;2023-07-28T05:23:56;8.10;;;2.17;;
79526;SDS011;68974;47.754;-3.364;2023-07-28T05:26:21;4.75;;;2.28;;
79526;SDS011;68974;47.754;-3.364;2023-07-28T05:28:47;5.15;;;1.73;;
79526;SDS011;68974;47.754;-3.364;2023-07-28T05:31:12;3.28;;;1.45;;
79526;SDS011;68974;47.754;-3.364;2023-07-28T05:33:40;6.15;;;3.28;;
79526;SDS011;68974;47.754;-3.364;2023-07-28T05:36:06;4.57;;;1.73;;
79526;SDS011;68974;47.754;-3.364;2023-07-28T05:38:31;4.28;;;2.22;;
79526;SDS011;68974;47.754;-3.364;2023-07-28T05:41:00;3.47;;;2.08;;
79526;SDS011;68974;47.754;-3.364;2023-07-28T05:43:28;3.35;;;1.50;;
79526;SDS011;68974;47.754;-3.364;2023-07-28T05:45:57;3.70;;;1.60;;
79526;SDS011;68974;47.754;-3.364;2023-07-28T05:48:23;3.03;;;1.70;;
79526;SDS011;68974;47.754;-3.364;2023-07-28T05:50:49;3.50;;;2.10;;
79526;SDS011;68974;47.754;-3.364;2023-07-28T05:53:16;2.38;;;1.60;;
79526;SDS011;68974;47.754;-3.364;2023-07-28T05:55:42;2.50;;;1.30;;
79526;SDS011;68974;47.754;-3.364;2023-07-28T05:58:07;2.72;;;1.27;;
79526;SDS011;68974;47.754;-3.364;2023-07-28T06:00:32;2.45;;;1.50;;
79526;SDS011;68974;47.754;-3.364;2023-07-28T06:02:58;2.00;;;1.20;;
79526;SDS011;68974;47.754;-3.364;2023-07-28T06:05:23;2.22;;;1.40;;
79526;SDS011;68974;47.754;-3.364;2023-07-28T06:07:49;2.60;;;1.50;;
79526;SDS011;68974;47.754;-3.364;2023-07-28T06:10:14;3.88;;;1.20;;
79526;SDS011;68974;47.754;-3.364;2023-07-28T06:12:40;2.22;;;1.67;;
79526;SDS011;68974;47.754;-3.364;2023-07-28T06:15:06;2.38;;;1.23;;
79526;SDS011;68974;47.754;-3.364;2023-07-28T06:17:32;1.40;;;1.10;;
79526;SDS011;68974;47.754;-3.364;2023-07-28T06:19:58;2.10;;;1.40;;
79526;SDS011;68974;47.754;-3.364;2023-07-28T06:22:23;1.92;;;1.65;;
79526;SDS011;68974;47.754;-3.364;2023-07-28T06:24:49;1.90;;;1.27;;
79526;SDS011;68974;47.754;-3.364;2023-07-28T06:27:15;2.88;;;2.20;;
79526;SDS011;68974;47.754;-3.364;2023-07-28T06:29:40;7.50;;;5.30;;
79526;SDS011;68974;47.754;-3.364;2023-07-28T06:32:06;6.85;;;5.07;;
79526;SDS011;68974;47.754;-3.364;2023-07-28T06:34:32;4.60;;;2.70;;
79526;SDS011;68974;47.754;-3.364;2023-07-28T06:36:57;3.53;;;2.55;;
79526;SDS011;68974;47.754;-3.364;2023-07-28T06:39:23;5.47;;;2.67;;
79526;SDS011;68974;47.754;-3.364;2023-07-28T06:41:49;4.10;;;2.28;;
79526;SDS011;68974;47.754;-3.364;2023-07-28T06:44:15;2.83;;;1.92;;
79526;SDS011;68974;47.754;-3.364;2023-07-28T06:46:41;5.53;;;1.85;;
79526;SDS011;68974;47.754;-3.364;2023-07-28T06:49:06;3.60;;;1.80;;
79526;SDS011;68974;47.754;-3.364;2023-07-28T06:51:32;4.13;;;1.85;;
79526;SDS011;68974;47.754;-3.364;2023-07-28T06:53:58;3.67;;;2.38;;
79526;SDS011;68974;47.754;-3.364;2023-07-28T06:56:24;2.78;;;2.22;;
79526;SDS011;68974;47.754;-3.364;2023-07-28T06:58:49;3.03;;;2.10;;
79526;SDS011;68974;47.754;-3.364;2023-07-28T07:01:16;4.47;;;2.38;;
79526;SDS011;68974;47.754;-3.364;2023-07-28T07:03:43;4.65;;;2.20;;
79526;SDS011;68974;47.754;-3.364;2023-07-28T07:08:35;5.13;;;2.47;;
79526;SDS011;68974;47.754;-3.364;2023-07-28T07:11:01;3.97;;;2.30;;
79526;SDS011;68974;47.754;-3.364;2023-07-28T07:13:26;4.20;;;2.17;;
79526;SDS011;68974;47.754;-3.364;2023-07-28T07:15:52;4.53;;;2.10;;
79526;SDS011;68974;47.754;-3.364;2023-07-28T07:18:17;4.75;;;2.55;;
79526;SDS011;68974;47.754;-3.364;2023-07-28T07:20:43;3.67;;;2.28;;
79526;SDS011;68974;47.754;-3.364;2023-07-28T07:23:08;5.65;;;2.33;;
79526;SDS011;68974;47.754;-3.364;2023-07-28T07:25:34;2.95;;;2.17;;
79526;SDS011;68974;47.754;-3.364;2023-07-28T07:27:59;2.92;;;2.20;;
79526;SDS011;68974;47.754;-3.364;2023-07-28T07:30:25;5.20;;;2.75;;
79526;SDS011;68974;47.754;-3.364;2023-07-28T07:32:50;10.48;;;6.85;;
79526;SDS011;68974;47.754;-3.364;2023-07-28T07:35:16;7.03;;;2.58;;
79526;SDS011;68974;47.754;-3.364;2023-07-28T07:37:42;5.75;;;3.00;;
79526;SDS011;68974;47.754;-3.364;2023-07-28T07:40:08;3.95;;;2.50;;
79526;SDS011;68974;47.754;-3.364;2023-07-28T07:42:42;3.17;;;2.50;;
79526;SDS011;68974;47.754;-3.364;2023-07-28T07:45:10;4.32;;;2.70;;
79526;SDS011;68974;47.754;-3.364;2023-07-28T07:47:36;2.80;;;2.25;;
79526;SDS011;68974;47.754;-3.364;2023-07-28T07:50:02;9.38;;;2.33;;
79526;SDS011;68974;47.754;-3.364;2023-07-28T07:52:28;5.13;;;2.75;;
79526;SDS011;68974;47.754;-3.364;2023-07-28T07:54:53;5.78;;;3.13;;
79526;SDS011;68974;47.754;-3.364;2023-07-28T07:57:19;5.00;;;3.10;;
79526;SDS011;68974;47.754;-3.364;2023-07-28T07:59:44;4.95;;;3.17;;
79526;SDS011;68974;47.754;-3.364;2023-07-28T08:02:10;6.85;;;5.53;;
79526;SDS011;68974;47.754;-3.364;2023-07-28T08:04:35;3.50;;;1.58;;
79526;SDS011;68974;47.754;-3.364;2023-07-28T08:07:01;2.85;;;1.77;;
79526;SDS011;68974;47.754;-3.364;2023-07-28T08:09:29;2.47;;;1.75;;
79526;SDS011;68974;47.754;-3.364;2023-07-28T08:11:55;3.20;;;1.98;;
79526;SDS011;68974;47.754;-3.364;2023-07-28T08:14:20;3.65;;;2.75;;
79526;SDS011;68974;47.754;-3.364;2023-07-28T08:16:46;5.72;;;3.75;;
79526;SDS011;68974;47.754;-3.364;2023-07-28T08:19:12;2.88;;;1.75;;
79526;SDS011;68974;47.754;-3.364;2023-07-28T08:21:37;2.85;;;1.20;;
79526;SDS011;68974;47.754;-3.364;2023-07-28T08:24:03;3.60;;;1.23;;
79526;SDS011;68974;47.754;-3.364;2023-07-28T08:26:29;2.40;;;1.20;;
79526;SDS011;68974;47.754;-3.364;2023-07-28T08:28:55;1.92;;;0.88;;
79526;SDS011;68974;47.754;-3.364;2023-07-28T08:31:21;1.02;;;0.80;;
79526;SDS011;68974;47.754;-3.364;2023-07-28T08:33:46;2.35;;;1.02;;
79526;SDS011;68974;47.754;-3.364;2023-07-28T08:36:12;1.38;;;1.27;;
79526;SDS011;68974;47.754;-3.364;2023-07-28T08:38:37;2.20;;;1.20;;
79526;SDS011;68974;47.754;-3.364;2023-07-28T08:41:03;1.58;;;1.27;;
79526;SDS011;68974;47.754;-3.364;2023-07-28T08:43:30;1.35;;;0.90;;
79526;SDS011;68974;47.754;-3.364;2023-07-28T08:45:56;1.30;;;1.15;;
79526;SDS011;68974;47.754;-3.364;2023-07-28T08:48:22;2.22;;;1.10;;
79526;SDS011;68974;47.754;-3.364;2023-07-28T08:50:49;2.33;;;1.10;;
79526;SDS011;68974;47.754;-3.364;2023-07-28T08:53:14;1.35;;;1.02;;
79526;SDS011;68974;47.754;-3.364;2023-07-28T08:55:42;3.95;;;0.95;;
79526;SDS011;68974;47.754;-3.364;2023-07-28T08:58:22;1.33;;;1.08;;
79526;SDS011;68974;47.754;-3.364;2023-07-28T09:00:51;2.17;;;0.93;;
79526;SDS011;68974;47.754;-3.364;2023-07-28T09:03:18;2.22;;;1.50;;
79526;SDS011;68974;47.754;-3.364;2023-07-28T09:05:44;4.15;;;1.70;;
79526;SDS011;68974;47.754;-3.364;2023-07-28T09:08:16;3.35;;;0.93;;
79526;SDS011;68974;47.754;-3.364;2023-07-28T09:10:42;5.50;;;1.20;;
79526;SDS011;68974;47.754;-3.364;2023-07-28T09:13:14;2.63;;;1.27;;
79526;SDS011;68974;47.754;-3.364;2023-07-28T09:15:41;1.35;;;0.90;;
79526;SDS011;68974;47.754;-3.364;2023-07-28T09:18:12;2.42;;;0.80;;
79526;SDS011;68974;47.754;-3.364;2023-07-28T09:20:41;1.63;;;0.82;;
79526;SDS011;68974;47.754;-3.364;2023-07-28T09:23:07;2.55;;;1.10;;
79526;SDS011;68974;47.754;-3.364;2023-07-28T09:25:37;2.53;;;1.10;;
79526;SDS011;68974;47.754;-3.364;2023-07-28T09:28:03;1.00;;;0.75;;
79526;SDS011;68974;47.754;-3.364;2023-07-28T09:30:48;2.10;;;0.90;;
79526;SDS011;68974;47.754;-3.364;2023-07-28T09:33:28;1.55;;;1.02;;
79526;SDS011;68974;47.754;-3.364;2023-07-28T09:35:55;2.25;;;1.40;;
79526;SDS011;68974;47.754;-3.364;2023-07-28T09:38:20;1.83;;;0.93;;
79526;SDS011;68974;47.754;-3.364;2023-07-28T09:40:48;0.82;;;0.73;;
79526;SDS011;68974;47.754;-3.364;2023-07-28T09:43:14;1.27;;;0.70;;
79526;SDS011;68974;47.754;-3.364;2023-07-28T09:45:40;0.82;;;0.68;;
79526;SDS011;68974;47.754;-3.364;2023-07-28T09:48:07;2.28;;;0.75;;
79526;SDS011;68974;47.754;-3.364;2023-07-28T09:50:36;1.58;;;0.60;;
79526;SDS011;68974;47.754;-3.364;2023-07-28T09:53:03;2.13;;;0.60;;
79526;SDS011;68974;47.754;-3.364;2023-07-28T09:55:32;1.00;;;0.82;;
79526;SDS011;68974;47.754;-3.364;2023-07-28T09:58:01;1.25;;;0.70;;
79526;SDS011;68974;47.754;-3.364;2023-07-28T10:00:31;0.70;;;0.70;;
79526;SDS011;68974;47.754;-3.364;2023-07-28T10:02:58;1.30;;;1.00;;
79526;SDS011;68974;47.754;-3.364;2023-07-28T10:05:24;1.58;;;0.93;;
79526;SDS011;68974;47.754;-3.364;2023-07-28T10:07:50;1.15;;;0.50;;
79526;SDS011;68974;47.754;-3.364;2023-07-28T10:10:17;1.60;;;0.50;;
79526;SDS011;68974;47.754;-3.364;2023-07-28T10:12:48;0.98;;;0.70;;
79526;SDS011;68974;47.754;-3.364;2023-07-28T10:15:21;1.40;;;1.00;;
79526;SDS011;68974;47.754;-3.364;2023-07-28T10:17:54;1.95;;;1.42;;
79526;SDS011;68974;47.754;-3.364;2023-07-28T10:20:33;1.77;;;1.10;;
79526;SDS011;68974;47.754;-3.364;2023-07-28T10:25:42;1.00;;;0.73;;
79526;SDS011;68974;47.754;-3.364;2023-07-28T10:31:01;1.02;;;0.80;;
79526;SDS011;68974;47.754;-3.364;2023-07-28T10:33:32;2.72;;;2.17;;
79526;SDS011;68974;47.754;-3.364;2023-07-28T10:39:30;2.67;;;1.15;;
79526;SDS011;68974;47.754;-3.364;2023-07-28T10:41:38;1.13;;;0.80;;
79526;SDS011;68974;47.754;-3.364;2023-07-28T10:44:04;1.75;;;1.10;;
79526;SDS011;68974;47.754;-3.364;2023-07-28T10:46:30;1.58;;;0.80;;
79526;SDS011;68974;47.754;-3.364;2023-07-28T10:49:03;1.38;;;0.80;;
79526;SDS011;68974;47.754;-3.364;2023-07-28T10:51:30;1.15;;;0.70;;
79526;SDS011;68974;47.754;-3.364;2023-07-28T10:53:59;1.38;;;0.40;;
79526;SDS011;68974;47.754;-3.364;2023-07-28T10:56:25;2.28;;;0.85;;
79526;SDS011;68974;47.754;-3.364;2023-07-28T11:01:33;0.68;;;0.57;;
79526;SDS011;68974;47.754;-3.364;2023-07-28T11:06:45;0.60;;;0.38;;
79526;SDS011;68974;47.754;-3.364;2023-07-28T11:09:12;0.60;;;0.50;;
79526;SDS011;68974;47.754;-3.364;2023-07-28T11:11:39;1.75;;;0.70;;
79526;SDS011;68974;47.754;-3.364;2023-07-28T11:14:07;0.30;;;0.30;;
79526;SDS011;68974;47.754;-3.364;2023-07-28T11:16:34;0.50;;;0.40;;
79526;SDS011;68974;47.754;-3.364;2023-07-28T11:19:11;1.42;;;0.40;;
79526;SDS011;68974;47.754;-3.364;2023-07-28T11:21:42;1.38;;;0.70;;
79526;SDS011;68974;47.754;-3.364;2023-07-28T11:24:08;0.50;;;0.43;;
79526;SDS011;68974;47.754;-3.364;2023-07-28T11:29:01;0.60;;;0.60;;
79526;SDS011;68974;47.754;-3.364;2023-07-28T11:31:27;0.40;;;0.40;;
79526;SDS011;68974;47.754;-3.364;2023-07-28T11:33:52;0.60;;;0.60;;
79526;SDS011;68974;47.754;-3.364;2023-07-28T11:36:24;1.35;;;0.80;;
79526;SDS011;68974;47.754;-3.364;2023-07-28T11:38:51;0.52;;;0.43;;
79526;SDS011;68974;47.754;-3.364;2023-07-28T11:41:18;0.52;;;0.50;;
79526;SDS011;68974;47.754;-3.364;2023-07-28T11:49:20;2.17;;;0.60;;
79526;SDS011;68974;47.754;-3.364;2023-07-28T11:51:51;0.73;;;0.40;;
79526;SDS011;68974;47.754;-3.364;2023-07-28T11:54:20;2.40;;;0.65;;
79526;SDS011;68974;47.754;-3.364;2023-07-28T11:56:48;0.80;;;0.60;;
79526;SDS011;68974;47.754;-3.364;2023-07-28T11:59:15;0.88;;;0.70;;
79526;SDS011;68974;47.754;-3.364;2023-07-28T12:04:39;1.00;;;0.65;;
79526;SDS011;68974;47.754;-3.364;2023-07-28T12:07:14;1.75;;;0.65;;
79526;SDS011;68974;47.754;-3.364;2023-07-28T12:12:16;1.08;;;0.55;;
79526;SDS011;68974;47.754;-3.364;2023-07-28T12:14:43;1.90;;;0.52;;
79526;SDS011;68974;47.754;-3.364;2023-07-28T12:17:15;0.80;;;0.70;;
79526;SDS011;68974;47.754;-3.364;2023-07-28T12:19:57;1.65;;;0.80;;
79526;SDS011;68974;47.754;-3.364;2023-07-28T12:22:41;1.58;;;0.50;;
79526;SDS011;68974;47.754;-3.364;2023-07-28T12:25:07;0.75;;;0.60;;
79526;SDS011;68974;47.754;-3.364;2023-07-28T12:27:33;0.40;;;0.40;;
79526;SDS011;68974;47.754;-3.364;2023-07-28T12:29:59;0.22;;;0.22;;
79526;SDS011;68974;47.754;-3.364;2023-07-28T12:32:25;0.70;;;0.40;;
79526;SDS011;68974;47.754;-3.364;2023-07-28T12:34:51;0.68;;;0.40;;
79526;SDS011;68974;47.754;-3.364;2023-07-28T12:37:16;0.40;;;0.40;;
79526;SDS011;68974;47.754;-3.364;2023-07-28T12:39:43;1.20;;;0.40;;
79526;SDS011;68974;47.754;-3.364;2023-07-28T12:42:09;0.75;;;0.68;;
79526;SDS011;68974;47.754;-3.364;2023-07-28T12:44:35;1.02;;;0.52;;
79526;SDS011;68974;47.754;-3.364;2023-07-28T12:47:01;4.03;;;1.52;;
79526;SDS011;68974;47.754;-3.364;2023-07-28T12:49:29;1.58;;;1.00;;
79526;SDS011;68974;47.754;-3.364;2023-07-28T12:51:56;0.70;;;0.60;;
79526;SDS011;68974;47.754;-3.364;2023-07-28T12:54:22;1.80;;;1.20;;
79526;SDS011;68974;47.754;-3.364;2023-07-28T12:56:48;1.00;;;0.60;;
79526;SDS011;68974;47.754;-3.364;2023-07-28T12:59:16;0.50;;;0.40;;
79526;SDS011;68974;47.754;-3.364;2023-07-28T13:01:42;0.63;;;0.63;;
79526;SDS011;68974;47.754;-3.364;2023-07-28T13:04:07;0.43;;;0.43;;
79526;SDS011;68974;47.754;-3.364;2023-07-28T13:06:33;0.63;;;0.40;;
79526;SDS011;68974;47.754;-3.364;2023-07-28T13:08:59;0.45;;;0.40;;
79526;SDS011;68974;47.754;-3.364;2023-07-28T13:11:24;0.40;;;0.40;;
79526;SDS011;68974;47.754;-3.364;2023-07-28T13:13:50;0.65;;;0.40;;
79526;SDS011;68974;47.754;-3.364;2023-07-28T13:16:15;0.50;;;0.50;;
79526;SDS011;68974;47.754;-3.364;2023-07-28T13:18:42;0.50;;;0.30;;
79526;SDS011;68974;47.754;-3.364;2023-07-28T13:21:08;1.08;;;0.40;;
79526;SDS011;68974;47.754;-3.364;2023-07-28T13:23:35;0.30;;;0.30;;
79526;SDS011;68974;47.754;-3.364;2023-07-28T13:26:01;0.40;;;0.40;;
79526;SDS011;68974;47.754;-3.364;2023-07-28T13:28:29;0.95;;;0.30;;
79526;SDS011;68974;47.754;-3.364;2023-07-28T13:30:55;0.60;;;0.40;;
79526;SDS011;68974;47.754;-3.364;2023-07-28T13:33:20;1.08;;;0.40;;
79526;SDS011;68974;47.754;-3.364;2023-07-28T13:35:46;0.40;;;0.40;;
79526;SDS011;68974;47.754;-3.364;2023-07-28T13:38:12;1.38;;;0.52;;
79526;SDS011;68974;47.754;-3.364;2023-07-28T13:40:37;0.28;;;0.22;;
79526;SDS011;68974;47.754;-3.364;2023-07-28T13:43:02;0.40;;;0.40;;
79526;SDS011;68974;47.754;-3.364;2023-07-28T13:45:28;0.40;;;0.40;;
79526;SDS011;68974;47.754;-3.364;2023-07-28T13:47:54;0.70;;;0.60;;
79526;SDS011;68974;47.754;-3.364;2023-07-28T13:50:20;0.98;;;0.60;;
79526;SDS011;68974;47.754;-3.364;2023-07-28T13:52:45;0.73;;;0.60;;
79526;SDS011;68974;47.754;-3.364;2023-07-28T13:55:10;0.50;;;0.50;;
79526;SDS011;68974;47.754;-3.364;2023-07-28T13:57:36;1.15;;;0.30;;
79526;SDS011;68974;47.754;-3.364;2023-07-28T14:00:02;0.30;;;0.30;;
79526;SDS011;68974;47.754;-3.364;2023-07-28T14:02:28;0.82;;;0.60;;
79526;SDS011;68974;47.754;-3.364;2023-07-28T14:04:54;0.88;;;0.40;;
79526;SDS011;68974;47.754;-3.364;2023-07-28T14:07:19;0.88;;;0.40;;
79526;SDS011;68974;47.754;-3.364;2023-07-28T14:09:45;0.50;;;0.40;;
79526;SDS011;68974;47.754;-3.364;2023-07-28T14:12:10;1.20;;;0.40;;
79526;SDS011;68974;47.754;-3.364;2023-07-28T14:14:36;0.98;;;0.40;;
79526;SDS011;68974;47.754;-3.364;2023-07-28T14:17:02;1.10;;;0.50;;
79526;SDS011;68974;47.754;-3.364;2023-07-28T14:19:27;0.60;;;0.50;;
79526;SDS011;68974;47.754;-3.364;2023-07-28T14:21:53;0.32;;;0.32;;
79526;SDS011;68974;47.754;-3.364;2023-07-28T14:24:18;0.60;;;0.50;;
79526;SDS011;68974;47.754;-3.364;2023-07-28T14:26:43;0.47;;;0.45;;
79526;SDS011;68974;47.754;-3.364;2023-07-28T14:29:09;1.50;;;0.50;;
79526;SDS011;68974;47.754;-3.364;2023-07-28T14:31:34;1.23;;;0.52;;
79526;SDS011;68974;47.754;-3.364;2023-07-28T14:34:00;0.95;;;0.55;;
79526;SDS011;68974;47.754;-3.364;2023-07-28T14:36:25;6.18;;;3.92;;
79526;SDS011;68974;47.754;-3.364;2023-07-28T14:38:51;1.35;;;1.05;;
79526;SDS011;68974;47.754;-3.364;2023-07-28T14:41:16;1.50;;;0.90;;
79526;SDS011;68974;47.754;-3.364;2023-07-28T14:43:42;1.17;;;0.88;;
79526;SDS011;68974;47.754;-3.364;2023-07-28T14:46:07;1.00;;;0.70;;
79526;SDS011;68974;47.754;-3.364;2023-07-28T14:48:33;3.15;;;1.00;;
79526;SDS011;68974;47.754;-3.364;2023-07-28T14:51:00;2.63;;;1.35;;
79526;SDS011;68974;47.754;-3.364;2023-07-28T14:53:32;13.95;;;2.80;;
79526;SDS011;68974;47.754;-3.364;2023-07-28T14:55:59;0.98;;;0.73;;
79526;SDS011;68974;47.754;-3.364;2023-07-28T14:58:26;1.35;;;0.65;;
79526;SDS011;68974;47.754;-3.364;2023-07-28T15:00:53;1.38;;;0.90;;
79526;SDS011;68974;47.754;-3.364;2023-07-28T15:03:18;1.35;;;0.40;;